createdAt,value
2018-09-01T00:00:45.284Z,999.11
2018-09-01T00:01:55.366Z,999.14
2018-09-01T00:03:05.220Z,999.14
2018-09-01T00:04:15.338Z,999.17
2018-09-01T00:05:25.437Z,999.18
2018-09-01T00:06:35.537Z,999.17
2018-09-01T00:07:45.628Z,999.26
2018-09-01T00:08:55.694Z,999.23
2018-09-01T00:10:05.508Z,999.24
2018-09-01T00:11:15.375Z,999.24
2018-09-01T00:12:25.889Z,999.26
2018-09-01T00:13:35.971Z,999.28
2018-09-01T00:14:46.061Z,999.35
2018-09-01T00:15:56.159Z,999.35
2018-09-01T00:17:06.138Z,999.31
2018-09-01T00:18:16.231Z,999.3
2018-09-01T00:19:26.329Z,999.28
2018-09-01T00:20:36.420Z,999.3
2018-09-01T00:21:46.491Z,999.29
2018-09-01T00:22:56.572Z,999.26
2018-09-01T00:24:06.398Z,999.3
2018-09-01T00:25:16.472Z,999.34
2018-09-01T00:26:26.282Z,999.32
2018-09-01T00:27:36.361Z,999.3
2018-09-01T00:28:46.436Z,999.27
2018-09-01T00:29:56.512Z,999.28
2018-09-01T00:31:06.585Z,999.33
2018-09-01T00:32:16.663Z,999.3
2018-09-01T00:33:26.739Z,999.31
2018-09-01T00:34:36.857Z,999.36
2018-09-01T00:35:46.937Z,999.32
2018-09-01T00:36:56.748Z,999.28
2018-09-01T00:38:06.822Z,999.3
2018-09-01T00:39:16.641Z,999.28
2018-09-01T00:40:26.504Z,999.35
2018-09-01T00:41:36.308Z,999.32
2018-09-01T00:42:46.111Z,999.33
2018-09-01T00:43:55.910Z,999.3
2018-09-01T00:45:06.098Z,999.35
2018-09-01T00:46:16.240Z,999.36
2018-09-01T00:47:26.291Z,999.36
2018-09-01T00:48:36.365Z,999.31
2018-09-01T00:49:46.453Z,999.32
2018-09-01T00:50:56.533Z,999.33
2018-09-01T00:52:06.609Z,999.32
2018-09-01T00:53:16.692Z,999.34
2018-09-01T00:54:26.779Z,999.33
2018-09-01T00:55:36.878Z,999.28
2018-09-01T00:56:46.950Z,999.27
2018-09-01T00:57:57.019Z,999.21
2018-09-01T00:59:07.127Z,999.16
2018-09-01T01:00:17.205Z,999.15
2018-09-01T01:01:27.011Z,999.22
2018-09-01T01:02:37.091Z,999.2
2018-09-01T01:03:47.191Z,999.18
2018-09-01T01:04:57.290Z,999.13
2018-09-01T01:06:07.379Z,999.15
2018-09-01T01:07:17.455Z,999.14
2018-09-01T01:08:27.521Z,999.13
2018-09-01T01:09:37.401Z,999.18
2018-09-01T01:10:47.482Z,999.18
2018-09-01T01:11:57.541Z,999.17
2018-09-01T01:13:07.353Z,999.08
2018-09-01T01:14:17.422Z,999.01
2018-09-01T01:15:27.510Z,998.9
2018-09-01T01:16:37.318Z,998.79
2018-09-01T01:17:47.407Z,998.8
2018-09-01T01:18:57.488Z,998.83
2018-09-01T01:20:07.569Z,998.83
2018-09-01T01:21:17.636Z,998.86
2018-09-01T01:22:27.465Z,998.85
2018-09-01T01:23:37.282Z,998.91
2018-09-01T01:24:47.371Z,998.94
2018-09-01T01:25:57.181Z,998.94
2018-09-01T01:27:07.249Z,998.98
2018-09-01T01:28:17.306Z,999.06
2018-09-01T01:29:27.383Z,999.1
2018-09-01T01:30:37.445Z,999.24
2018-09-01T01:31:47.513Z,999.38
2018-09-01T01:32:57.651Z,999.5
2018-09-01T01:34:07.452Z,999.7
2018-09-01T01:35:17.527Z,999.85
2018-09-01T01:36:27.072Z,999.91
2018-09-01T01:37:36.867Z,999.98
2018-09-01T01:38:46.995Z,999.96
2018-09-01T01:39:56.815Z,999.94
2018-09-01T01:41:06.886Z,999.92
2018-09-01T01:42:16.961Z,999.92
2018-09-01T01:43:27.020Z,999.97
2018-09-01T01:44:37.093Z,999.94
2018-09-01T01:45:46.907Z,999.97
2018-09-01T01:46:57.015Z,999.99
2018-09-01T01:48:06.857Z,1000.01
2018-09-01T01:49:16.662Z,1000.04
2018-09-01T01:50:26.492Z,999.98
2018-09-01T01:51:36.304Z,999.91
2018-09-01T01:52:46.361Z,999.9
2018-09-01T01:53:56.427Z,999.89
2018-09-01T01:55:06.234Z,999.83
2018-09-01T01:56:16.312Z,999.85
2018-09-01T01:57:26.403Z,999.81
2018-09-01T01:58:36.482Z,999.79
2018-09-01T01:59:46.556Z,999.79
2018-09-01T02:00:56.625Z,999.76
2018-09-01T02:02:06.760Z,999.75
2018-09-01T02:03:16.831Z,999.74
2018-09-01T02:04:26.903Z,999.77
2018-09-01T02:05:36.717Z,999.81
2018-09-01T02:06:46.796Z,999.86
2018-09-01T02:07:56.916Z,999.89
2018-09-01T02:09:06.992Z,999.95
2018-09-01T02:10:17.068Z,999.96
2018-09-01T02:11:27.156Z,999.96
2018-09-01T02:12:37.235Z,999.95
2018-09-01T02:13:47.108Z,999.92
2018-09-01T02:14:56.914Z,999.88
2018-09-01T02:16:06.982Z,999.85
2018-09-01T02:17:16.809Z,999.83
2018-09-01T02:18:26.627Z,999.86
2018-09-01T02:19:36.651Z,999.85
2018-09-01T02:20:46.474Z,999.78
2018-09-01T02:21:56.559Z,999.76
2018-09-01T02:23:06.618Z,999.74
2018-09-01T02:24:16.684Z,999.73
2018-09-01T02:25:26.805Z,999.82
2018-09-01T02:26:36.619Z,999.81
2018-09-01T02:27:46.425Z,999.95
2018-09-01T02:28:56.244Z,999.99
2018-09-01T02:30:06.402Z,999.99
2018-09-01T02:31:16.486Z,1000
2018-09-01T02:32:26.552Z,1000.03
2018-09-01T02:33:36.608Z,1000.09
2018-09-01T02:34:46.679Z,1000.12
2018-09-01T02:35:56.761Z,1000.14
2018-09-01T02:37:06.369Z,1000.19
2018-09-01T02:38:16.225Z,1000.3
2018-09-01T02:39:26.325Z,1000.38
2018-09-01T02:40:36.395Z,1000.41
2018-09-01T02:41:46.489Z,1000.39
2018-09-01T02:42:56.315Z,1000.36
2018-09-01T02:44:06.500Z,1000.33
2018-09-01T02:45:16.583Z,1000.3
2018-09-01T02:46:26.397Z,1000.27
2018-09-01T02:47:36.464Z,1000.22
2018-09-01T02:48:46.580Z,1000.19
2018-09-01T02:49:56.651Z,1000.15
2018-09-01T02:51:06.498Z,1000.14
2018-09-01T02:52:16.316Z,1000.18
2018-09-01T02:53:26.140Z,1000.14
2018-09-01T02:54:36.008Z,1000.13
2018-09-01T02:55:45.818Z,1000.06
2018-09-01T02:56:55.886Z,1000.05
2018-09-01T02:58:05.701Z,1000.03
2018-09-01T02:59:15.830Z,1000.06
2018-09-01T03:00:25.904Z,1000.05
2018-09-01T03:01:35.983Z,1000.06
2018-09-01T03:34:39.297Z,1000.49
2018-09-01T03:35:48.835Z,1000.36
2018-09-01T03:36:58.901Z,1000.19
2018-09-01T03:38:08.969Z,1000.1
2018-09-01T03:39:19.034Z,1000.12
2018-09-01T03:40:29.154Z,1000.13
2018-09-01T03:41:39.228Z,1000.22
2018-09-01T03:42:49.035Z,1000.19
2018-09-01T03:43:58.837Z,1000.27
2018-09-01T03:45:08.900Z,1000.31
2018-09-01T03:46:18.774Z,1000.34
2018-09-01T03:47:28.862Z,1000.34
2018-09-01T03:48:38.692Z,1000.39
2018-09-01T03:49:48.788Z,1000.51
2018-09-01T03:50:58.870Z,1000.55
2018-09-01T03:52:08.940Z,1000.6
2018-09-01T03:53:18.754Z,1000.52
2018-09-01T03:54:28.827Z,1000.39
2018-09-01T03:55:38.900Z,1000.17
2018-09-01T03:56:48.971Z,1000.05
2018-09-01T03:57:59.138Z,1000.06
2018-09-01T03:59:09.200Z,1000.15
2018-09-01T04:00:19.279Z,1000.28
2018-09-01T04:01:29.357Z,1000.3
2018-09-01T04:02:39.418Z,1000.16
2018-09-01T04:03:48.967Z,999.92
2018-09-01T04:04:59.055Z,999.94
2018-09-01T04:06:09.116Z,999.97
2018-09-01T04:07:18.948Z,1000.03
2018-09-01T04:08:29.012Z,1000.15
2018-09-01T04:09:39.136Z,1000.25
2018-09-01T04:10:49.215Z,1000.22
2018-09-01T04:11:59.017Z,999.98
2018-09-01T04:13:09.091Z,999.82
2018-09-01T04:14:19.161Z,999.73
2018-09-01T04:15:29.270Z,999.69
2018-09-01T04:16:39.339Z,999.72
2018-09-01T04:17:49.419Z,999.87
2018-09-01T04:18:59.492Z,999.98
2018-09-01T04:20:09.556Z,1000.08
2018-09-01T04:21:19.629Z,1000.17
2018-09-01T04:22:29.703Z,1000.24
2018-09-01T04:23:39.760Z,1000.23
2018-09-01T04:24:49.578Z,1000.25
2018-09-01T04:25:59.398Z,1000.21
2018-09-01T04:27:09.211Z,1000.13
2018-09-01T04:28:19.291Z,1000.07
2018-09-01T04:29:28.830Z,1000.06
2018-09-01T04:30:38.909Z,1000.01
2018-09-01T04:31:49.018Z,1000.03
2018-09-01T04:32:59.374Z,1000.08
2018-09-01T04:34:09.193Z,1000.09
2018-09-01T04:35:19.267Z,1000.09
2018-09-01T04:36:29.334Z,1000.08
2018-09-01T04:37:39.426Z,1000.09
2018-09-01T04:38:49.535Z,1000.14
2018-09-01T04:39:59.611Z,1000.11
2018-09-01T04:41:09.419Z,1000.1
2018-09-01T04:42:19.499Z,1000.15
2018-09-01T04:43:29.580Z,1000.19
2018-09-01T04:44:39.661Z,1000.21
2018-09-01T04:45:49.742Z,1000.33
2018-09-01T04:46:59.567Z,1000.46
2018-09-01T04:48:10.062Z,1000.44
2018-09-01T04:49:20.148Z,1000.45
2018-09-01T04:50:30.037Z,1000.42
2018-09-01T04:51:39.865Z,1000.39
2018-09-01T04:52:49.677Z,1000.38
2018-09-01T04:53:59.760Z,1000.31
2018-09-01T04:55:09.829Z,1000.18
2018-09-01T04:56:19.893Z,1000.14
2018-09-01T04:57:29.972Z,1000.15
2018-09-01T04:58:39.783Z,1000.16
2018-09-01T04:59:49.859Z,1000.18
2018-09-01T05:00:59.952Z,1000.21
2018-09-01T05:02:10.607Z,1000.25
2018-09-01T05:03:20.411Z,1000.25
2018-09-01T05:04:30.493Z,1000.26
2018-09-01T05:05:40.595Z,1000.22
2018-09-01T05:06:50.395Z,1000.19
2018-09-01T05:08:00.414Z,1000.13
2018-09-01T05:09:10.498Z,1000.12
2018-09-01T05:10:20.304Z,1000.19
2018-09-01T05:11:30.416Z,1000.21
2018-09-01T05:12:40.474Z,1000.22
2018-09-01T05:13:50.532Z,1000.21
2018-09-01T05:15:00.848Z,1000.14
2018-09-01T05:16:10.658Z,1000.15
2018-09-01T05:17:20.737Z,1000.15
2018-09-01T05:18:30.819Z,1000.16
2018-09-01T05:19:40.941Z,1000.2
2018-09-01T05:20:51.010Z,1000.28
2018-09-01T05:22:01.081Z,1000.33
2018-09-01T05:23:11.133Z,1000.42
2018-09-01T05:24:21.206Z,1000.56
2018-09-01T05:25:31.052Z,1000.64
2018-09-01T05:26:41.126Z,1000.67
2018-09-01T05:27:51.218Z,1000.73
2018-09-01T05:29:01.291Z,1000.79
2018-09-01T05:30:10.586Z,1000.78
2018-09-01T05:31:20.665Z,1000.84
2018-09-01T05:32:30.724Z,1000.88
2018-09-01T05:33:40.541Z,1000.88
2018-09-01T05:34:50.338Z,1000.89
2018-09-01T05:36:00.405Z,1000.89
2018-09-01T05:37:10.257Z,1000.91
2018-09-01T05:38:20.333Z,1000.9
2018-09-01T05:39:30.399Z,1000.81
2018-09-01T05:40:40.492Z,1000.78
2018-09-01T05:41:50.562Z,1000.79
2018-09-01T05:43:00.439Z,1000.71
2018-09-01T05:44:10.259Z,1000.69
2018-09-01T05:45:20.369Z,1000.61
2018-09-01T05:46:30.500Z,1000.55
2018-09-01T05:47:40.322Z,1000.48
2018-09-01T05:48:50.145Z,1000.5
2018-09-01T05:49:59.957Z,1000.39
2018-09-01T05:51:10.033Z,1000.4
2018-09-01T05:52:20.136Z,1000.38
2018-09-01T05:53:30.216Z,1000.45
2018-09-01T05:54:40.034Z,1000.51
2018-09-01T05:55:50.117Z,1000.61
2018-09-01T05:57:00.829Z,1000.74
2018-09-01T05:58:10.902Z,1000.78
2018-09-01T05:59:20.978Z,1000.86
2018-09-01T06:00:30.893Z,1000.93
2018-09-01T06:01:41.088Z,1001.03
2018-09-01T06:02:51.165Z,1001.14
2018-09-01T06:04:01.244Z,1001.24
2018-09-01T06:05:11.073Z,1001.31
2018-09-01T06:06:21.198Z,1001.4
2018-09-01T06:07:31.858Z,1001.45
2018-09-01T06:08:41.920Z,1001.44
2018-09-01T06:09:51.992Z,1001.42
2018-09-01T06:11:02.069Z,1001.37
2018-09-01T06:12:12.141Z,1001.26
2018-09-01T06:13:22.213Z,1001.24
2018-09-01T06:14:32.035Z,1001.2
2018-09-01T06:15:41.863Z,1001.17
2018-09-01T06:16:51.689Z,1001.16
2018-09-01T06:18:01.901Z,1001.17
2018-09-01T06:19:12.312Z,1001.22
2018-09-01T06:20:22.953Z,1001.3
2018-09-01T06:21:32.776Z,1001.26
2018-09-01T06:22:42.839Z,1001.28
2018-09-01T06:23:52.925Z,1001.24
2018-09-01T06:25:03.518Z,1001.26
2018-09-01T06:26:13.611Z,1001.22
2018-09-01T06:27:23.420Z,1001.26
2018-09-01T06:28:33.496Z,1001.23
2018-09-01T06:29:43.566Z,1001.2
2018-09-01T06:30:53.646Z,1001.2
2018-09-01T06:32:03.715Z,1001.23
2018-09-01T06:33:13.851Z,1001.21
2018-09-01T06:34:23.674Z,1001.31
2018-09-01T06:35:33.801Z,1001.32
2018-09-01T06:36:43.870Z,1001.41
2018-09-01T06:37:53.949Z,1001.46
2018-09-01T06:39:04.042Z,1001.55
2018-09-01T06:40:14.124Z,1001.55
2018-09-01T06:41:23.949Z,1001.53
2018-09-01T06:42:33.774Z,1001.55
2018-09-01T06:43:43.998Z,1001.59
2018-09-01T06:44:53.820Z,1001.62
2018-09-01T06:46:03.924Z,1001.66
2018-09-01T06:47:14.045Z,1001.73
2018-09-01T06:48:24.105Z,1001.75
2018-09-01T06:49:33.937Z,1001.72
2018-09-01T06:50:44.025Z,1001.76
2018-09-01T06:51:54.104Z,1001.72
2018-09-01T06:53:04.183Z,1001.74
2018-09-01T06:54:14.258Z,1001.88
2018-09-01T06:55:24.348Z,1001.91
2018-09-01T06:56:34.445Z,1001.93
2018-09-01T06:57:44.248Z,1001.98
2018-09-01T06:58:54.320Z,1002
2018-09-01T07:00:04.402Z,1002.06
2018-09-01T07:01:14.542Z,1002.14
2018-09-01T07:02:24.616Z,1002.19
2018-09-01T07:03:34.719Z,1002.24
2018-09-01T07:04:44.968Z,1002.3
2018-09-01T07:05:55.506Z,1002.32
2018-09-01T07:07:05.563Z,1002.26
2018-09-01T07:08:15.658Z,1002.25
2018-09-01T07:09:25.767Z,1002.23
2018-09-01T07:10:35.643Z,1002.16
2018-09-01T07:11:45.746Z,1002.17
2018-09-01T07:12:55.817Z,1002.16
2018-09-01T07:14:05.913Z,1002.18
2018-09-01T07:15:15.743Z,1002.18
2018-09-01T07:16:25.853Z,1002.08
2018-09-01T07:17:35.660Z,1001.97
2018-09-01T07:18:45.545Z,1001.89
2018-09-01T07:19:55.648Z,1001.84
2018-09-01T07:21:05.483Z,1001.83
2018-09-01T07:22:15.569Z,1001.72
2018-09-01T07:23:25.687Z,1001.64
2018-09-01T07:24:35.511Z,1001.55
2018-09-01T07:25:45.589Z,1001.46
2018-09-01T07:26:55.655Z,1001.43
2018-09-01T07:28:05.537Z,1001.35
2018-09-01T07:29:15.603Z,1001.3
2018-09-01T07:30:25.581Z,1001.24
2018-09-01T07:31:36.856Z,1001.23
2018-09-01T07:32:47.189Z,1001.15
2018-09-01T07:33:57.279Z,1001.19
2018-09-01T07:35:07.092Z,1001.13
2018-09-01T07:36:17.168Z,1001.14
2018-09-01T07:37:26.999Z,1001.26
2018-09-01T07:38:36.840Z,1001.26
2018-09-01T07:39:46.969Z,1001.33
2018-09-01T07:40:56.818Z,1001.34
2018-09-01T07:42:06.664Z,1001.32
2018-09-01T07:43:16.489Z,1001.27
2018-09-01T07:44:26.301Z,1001.24
2018-09-01T07:45:36.375Z,1001.18
2018-09-01T07:46:46.173Z,1001.2
2018-09-01T07:47:55.973Z,1001.26
2018-09-01T07:49:06.070Z,1001.33
2018-09-01T07:50:16.157Z,1001.4
2018-09-01T07:51:25.991Z,1001.42
2018-09-01T07:52:35.811Z,1001.34
2018-09-01T07:53:45.641Z,1001.27
2018-09-01T07:54:55.734Z,1001.14
2018-09-01T07:56:06.018Z,1001.02
2018-09-01T07:57:16.606Z,1000.93
2018-09-01T07:58:26.679Z,1000.8
2018-09-01T07:59:36.519Z,1000.59
2018-09-01T08:00:46.342Z,1000.47
2018-09-01T08:01:56.444Z,1000.38
2018-09-01T08:03:06.602Z,1000.41
2018-09-01T08:04:16.728Z,1000.47
2018-09-01T08:05:26.799Z,1000.51
2018-09-01T08:06:36.685Z,1000.57
2018-09-01T08:07:46.779Z,1000.57
2018-09-01T08:08:56.945Z,1000.57
2018-09-01T08:10:06.773Z,1000.57
2018-09-01T08:11:16.843Z,1000.61
2018-09-01T08:12:26.666Z,1000.61
2018-09-01T08:13:36.846Z,1000.74
2018-09-01T08:14:47.264Z,1000.82
2018-09-01T08:15:57.084Z,1000.9
2018-09-01T08:17:07.165Z,1000.95
2018-09-01T08:18:16.765Z,1001.01
2018-09-01T08:19:26.318Z,1001.05
2018-09-01T08:20:36.461Z,1001.09
2018-09-01T08:21:46.003Z,1001.16
2018-09-01T08:22:56.093Z,1001.23
2018-09-01T08:24:06.179Z,1001.24
2018-09-01T08:25:16.297Z,1001.22
2018-09-01T08:26:26.190Z,1001.24
2018-09-01T08:27:36.022Z,1001.2
2018-09-01T08:28:45.876Z,1001.18
2018-09-01T08:29:55.956Z,1001.19
2018-09-01T08:31:06.056Z,1001.18
2018-09-01T08:32:16.442Z,1001.14
2018-09-01T08:33:26.580Z,1001.18
2018-09-01T08:34:36.923Z,1001.21
2018-09-01T08:35:47.013Z,1001.16
2018-09-01T08:36:57.088Z,1001.04
2018-09-01T08:38:07.243Z,1001.05
2018-09-01T08:39:17.372Z,1001.05
2018-09-01T08:40:27.481Z,1001.03
2018-09-01T08:41:37.051Z,1000.95
2018-09-01T08:42:47.162Z,1000.92
2018-09-01T08:43:57.297Z,1000.98
2018-09-01T08:45:07.367Z,1001.02
2018-09-01T08:46:17.388Z,1001.14
2018-09-01T08:47:27.458Z,1001.09
2018-09-01T08:48:37.553Z,1001.06
2018-09-01T08:49:47.636Z,1000.94
2018-09-01T08:50:57.740Z,1000.93
2018-09-01T08:52:07.833Z,1000.98
2018-09-01T08:53:17.902Z,1000.99
2018-09-01T08:54:28.001Z,1000.92
2018-09-01T08:55:38.085Z,1000.92
2018-09-01T08:56:47.886Z,1000.99
2018-09-01T08:57:57.981Z,1001
2018-09-01T08:59:08.077Z,1001.03
2018-09-01T09:00:18.161Z,1000.96
2018-09-01T09:01:28.294Z,1000.92
2018-09-01T09:02:38.402Z,1000.9
2018-09-01T09:03:48.506Z,1000.85
2018-09-01T09:04:58.583Z,1000.86
2018-09-01T09:06:08.669Z,1000.85
2018-09-01T09:07:18.767Z,1000.82
2018-09-01T09:08:28.861Z,1000.84
2018-09-01T09:09:38.694Z,1000.87
2018-09-01T09:10:48.788Z,1000.97
2018-09-01T09:11:58.906Z,1001.11
2018-09-01T09:13:08.995Z,1001.13
2018-09-01T09:14:19.080Z,1001.08
2018-09-01T09:15:29.178Z,1001.12
2018-09-01T09:16:39.279Z,1001.21
2018-09-01T09:17:49.097Z,1001.22
2018-09-01T09:18:58.992Z,1001.25
2018-09-01T09:20:09.100Z,1001.27
2018-09-01T09:21:19.244Z,1001.35
2018-09-01T09:22:29.080Z,1001.39
2018-09-01T09:23:39.153Z,1001.38
2018-09-01T09:24:49.023Z,1001.39
2018-09-01T09:25:59.166Z,1001.39
2018-09-01T09:27:09.260Z,1001.37
2018-09-01T09:28:19.065Z,1001.33
2018-09-01T09:29:28.640Z,1001.33
2018-09-01T09:30:38.776Z,1001.34
2018-09-01T09:31:48.595Z,1001.4
2018-09-01T09:32:58.678Z,1001.38
2018-09-01T09:34:08.753Z,1001.35
2018-09-01T09:35:18.859Z,1001.32
2018-09-01T09:36:28.980Z,1001.27
2018-09-01T09:37:39.063Z,1001.29
2018-09-01T09:38:49.193Z,1001.3
2018-09-01T09:39:59.022Z,1001.31
2018-09-01T09:41:08.843Z,1001.37
2018-09-01T09:42:18.956Z,1001.35
2018-09-01T09:43:29.046Z,1001.31
2018-09-01T09:44:39.180Z,1001.36
2018-09-01T09:45:49.380Z,1001.31
2018-09-01T09:46:59.441Z,1001.26
2018-09-01T09:48:09.559Z,1001.22
2018-09-01T09:49:19.665Z,1001.23
2018-09-01T09:50:29.510Z,1001.23
2018-09-01T09:51:39.612Z,1001.22
2018-09-01T09:52:49.695Z,1001.23
2018-09-01T09:53:59.690Z,1001.17
2018-09-01T09:55:09.521Z,1001.19
2018-09-01T09:56:19.615Z,1001.24
2018-09-01T09:57:29.190Z,1001.27
2018-09-01T09:58:39.012Z,1001.23
2018-09-01T09:59:49.170Z,1001.3
2018-09-01T10:00:59.307Z,1001.35
2018-09-01T10:02:09.925Z,1001.32
2018-09-01T10:03:20.012Z,1001.25
2018-09-01T10:04:30.154Z,1001.25
2018-09-01T10:05:40.122Z,1001.18
2018-09-01T10:06:50.567Z,1001.09
2018-09-01T10:08:00.477Z,1001.09
2018-09-01T10:09:10.589Z,1001.16
2018-09-01T10:10:20.677Z,1001.15
2018-09-01T10:11:30.519Z,1001.18
2018-09-01T10:12:40.356Z,1001.19
2018-09-01T10:13:50.436Z,1001.16
2018-09-01T10:15:00.867Z,1001.26
2018-09-01T10:16:10.982Z,1001.3
2018-09-01T10:17:21.125Z,1001.32
2018-09-01T10:18:31.215Z,1001.37
2018-09-01T10:19:41.373Z,1001.37
2018-09-01T10:20:51.478Z,1001.33
2018-09-01T10:22:01.319Z,1001.38
2018-09-01T10:23:11.425Z,1001.32
2018-09-01T10:24:21.521Z,1001.33
2018-09-01T10:25:31.611Z,1001.32
2018-09-01T10:26:41.792Z,1001.33
2018-09-01T10:27:51.791Z,1001.36
2018-09-01T10:29:02.031Z,1001.41
2018-09-01T10:30:12.148Z,1001.45
2018-09-01T10:31:22.261Z,1001.41
2018-09-01T10:32:32.100Z,1001.42
2018-09-01T10:33:41.930Z,1001.46
2018-09-01T10:34:51.836Z,1001.43
2018-09-01T10:36:01.995Z,1001.4
2018-09-01T10:37:11.819Z,1001.39
2018-09-01T10:38:21.900Z,1001.36
2018-09-01T10:39:32.540Z,1001.36
2018-09-01T10:40:42.681Z,1001.3
2018-09-01T10:41:52.843Z,1001.26
2018-09-01T10:43:02.749Z,1001.26
2018-09-01T10:44:12.845Z,1001.26
2018-09-01T10:45:23.084Z,1001.24
2018-09-01T10:46:33.222Z,1001.18
2018-09-01T10:47:43.343Z,1001.14
2018-09-01T10:48:53.506Z,1001.09
2018-09-01T10:50:03.562Z,1001.15
2018-09-01T10:51:13.671Z,1001.14
2018-09-01T10:52:23.870Z,1001.2
2018-09-01T10:53:33.748Z,1001.24
2018-09-01T10:54:43.575Z,1001.26
2018-09-01T10:55:53.665Z,1001.27
2018-09-01T10:57:03.518Z,1001.25
2018-09-01T10:58:13.663Z,1001.23
2018-09-01T10:59:23.859Z,1001.26
2018-09-01T11:00:35.023Z,1001.22
2018-09-01T11:01:45.121Z,1001.21
2018-09-01T11:02:55.250Z,1001.2
2018-09-01T11:04:05.537Z,1001.23
2018-09-01T11:05:15.377Z,1001.19
2018-09-01T11:06:25.283Z,1001.21
2018-09-01T11:07:35.378Z,1001.18
2018-09-01T11:08:45.213Z,1001.12
2018-09-01T11:09:55.414Z,1001.12
2018-09-01T11:11:06.050Z,1001.11
2018-09-01T11:12:16.178Z,1001.09
2018-09-01T11:13:26.283Z,1001.06
2018-09-01T11:14:36.385Z,1001
2018-09-01T11:15:46.567Z,1000.98
2018-09-01T11:16:56.697Z,1000.94
2018-09-01T11:18:06.832Z,1000.93
2018-09-01T11:19:16.931Z,1000.86
2018-09-01T11:20:27.048Z,1000.83
2018-09-01T11:21:37.292Z,1000.74
2018-09-01T11:22:47.643Z,1000.68
2018-09-01T11:23:57.784Z,1000.62
2018-09-01T11:25:07.875Z,1000.62
2018-09-01T11:26:17.739Z,1000.63
2018-09-01T11:27:27.428Z,1000.65
2018-09-01T11:28:38.009Z,1000.69
2018-09-01T11:29:48.110Z,1000.67
2018-09-01T11:30:57.938Z,1000.63
2018-09-01T11:32:08.631Z,1000.56
2018-09-01T11:33:18.730Z,1000.53
2018-09-01T11:34:28.560Z,1000.49
2018-09-01T11:35:38.735Z,1000.52
2018-09-01T11:36:48.959Z,1000.52
2018-09-01T11:37:59.555Z,1000.53
2018-09-01T11:39:09.390Z,1000.55
2018-09-01T11:40:19.515Z,1000.58
2018-09-01T11:41:29.945Z,1000.63
2018-09-01T11:42:40.204Z,1000.61
2018-09-01T11:43:50.207Z,1000.71
2018-09-01T11:45:00.333Z,1000.74
2018-09-01T11:46:10.448Z,1000.75
2018-09-01T11:47:20.588Z,1000.69
2018-09-01T11:48:30.738Z,1000.66
2018-09-01T11:49:41.146Z,1000.6
2018-09-01T11:50:51.338Z,1000.58
2018-09-01T11:52:01.446Z,1000.55
2018-09-01T11:53:12.092Z,1000.52
2018-09-01T11:54:23.240Z,1000.48
2018-09-01T11:55:33.345Z,1000.33
2018-09-01T11:56:43.430Z,1000.25
2018-09-01T11:57:53.284Z,1000.11
2018-09-01T11:59:03.388Z,1000.13
2018-09-01T12:00:13.261Z,1000.1
2018-09-01T12:01:23.336Z,1000.13
2018-09-01T12:02:33.478Z,1000.18
2018-09-01T12:03:43.575Z,1000.21
2018-09-01T12:04:53.763Z,1000.22
2018-09-01T12:06:03.899Z,1000.28
2018-09-01T12:07:13.550Z,1000.34
2018-09-01T12:08:23.680Z,1000.33
2018-09-01T12:09:33.769Z,1000.28
2018-09-01T12:10:43.856Z,1000.22
2018-09-01T12:11:54.091Z,1000.23
2018-09-01T12:13:04.380Z,1000.18
2018-09-01T12:14:14.484Z,1000.13
2018-09-01T12:15:24.337Z,1000.14
2018-09-01T12:16:34.184Z,1000.12
2018-09-01T12:17:44.272Z,1000.15
2018-09-01T12:18:54.370Z,1000.17
2018-09-01T12:20:04.487Z,1000.17
2018-09-01T12:21:14.586Z,1000.17
2018-09-01T12:22:24.779Z,1000.21
2018-09-01T12:23:34.390Z,1000.25
2018-09-01T12:24:44.515Z,1000.33
2018-09-01T12:25:54.599Z,1000.37
2018-09-01T12:27:04.720Z,1000.34
2018-09-01T12:28:15.123Z,1000.36
2018-09-01T12:29:26.251Z,1000.32
2018-09-01T12:30:36.374Z,1000.35
2018-09-01T12:31:46.488Z,1000.36
2018-09-01T12:32:56.623Z,1000.43
2018-09-01T12:34:06.734Z,1000.43
2018-09-01T12:35:17.000Z,1000.5
2018-09-01T12:36:27.571Z,1000.54
2018-09-01T12:37:37.399Z,1000.64
2018-09-01T12:38:47.228Z,1000.78
2018-09-01T12:39:57.054Z,1000.91
2018-09-01T12:41:06.944Z,1001.11
2018-09-01T12:42:17.043Z,1001.22
2018-09-01T12:43:27.162Z,1001.34
2018-09-01T12:44:37.266Z,1001.49
2018-09-01T12:45:46.847Z,1001.58
2018-09-01T12:46:56.964Z,1001.64
2018-09-01T12:48:07.034Z,1001.72
2018-09-01T12:49:17.128Z,1001.79
2018-09-01T12:50:27.225Z,1001.88
2018-09-01T12:51:37.336Z,1001.97
2018-09-01T12:52:47.474Z,1002.01
2018-09-01T12:53:57.055Z,1002.05
2018-09-01T12:55:07.431Z,1002.24
2018-09-01T12:56:17.260Z,1002.26
2018-09-01T12:57:27.092Z,1002.4
2018-09-01T12:58:37.377Z,1002.43
2018-09-01T12:59:47.230Z,1002.53
2018-09-01T13:00:57.327Z,1002.52
2018-09-01T13:02:07.445Z,1002.49
2018-09-01T13:03:17.279Z,1002.4
2018-09-01T13:04:27.417Z,1002.32
2018-09-01T13:05:37.568Z,1002.3
2018-09-01T13:06:47.670Z,1002.21
2018-09-01T13:07:57.904Z,1002.12
2018-09-01T13:09:08.614Z,1001.97
2018-09-01T13:10:18.768Z,1001.9
2018-09-01T13:11:28.863Z,1001.76
2018-09-01T13:12:38.962Z,1001.74
2018-09-01T13:13:49.085Z,1001.7
2018-09-01T13:14:58.916Z,1001.75
2018-09-01T13:16:09.042Z,1001.82
2018-09-01T13:17:18.611Z,1001.79
2018-09-01T13:18:28.729Z,1001.71
2018-09-01T13:19:38.841Z,1001.61
2018-09-01T13:20:49.044Z,1001.51
2018-09-01T13:21:58.885Z,1001.4
2018-09-01T13:23:08.986Z,1001.26
2018-09-01T13:24:19.087Z,1001.2
2018-09-01T13:25:29.307Z,1001.17
2018-09-01T13:26:39.709Z,1001.11
2018-09-01T13:27:49.796Z,1001.04
2018-09-01T13:28:59.884Z,1000.95
2018-09-01T13:30:09.803Z,1000.86
2018-09-01T13:31:19.932Z,1000.78
2018-09-01T13:32:29.794Z,1000.79
2018-09-01T13:33:39.966Z,1000.74
2018-09-01T13:34:50.098Z,1000.8
2018-09-01T13:36:00.180Z,1000.82
2018-09-01T13:37:10.314Z,1000.93
2018-09-01T13:38:20.409Z,1001.03
2018-09-01T13:39:30.742Z,1001.15
2018-09-01T13:40:40.568Z,1001.2
2018-09-01T13:41:50.426Z,1001.26
2018-09-01T13:43:00.565Z,1001.27
2018-09-01T13:44:10.383Z,1001.26
2018-09-01T13:45:20.534Z,1001.28
2018-09-01T13:46:30.872Z,1001.32
2018-09-01T13:47:41.016Z,1001.37
2018-09-01T13:48:51.146Z,1001.41
2018-09-01T13:50:00.962Z,1001.46
2018-09-01T13:51:11.065Z,1001.48
2018-09-01T13:52:21.176Z,1001.47
2018-09-01T13:53:31.280Z,1001.5
2018-09-01T13:54:41.393Z,1001.52
2018-09-01T13:55:51.495Z,1001.57
2018-09-01T13:57:01.635Z,1001.64
2018-09-01T13:58:11.863Z,1001.65
2018-09-01T13:59:21.973Z,1001.66
2018-09-01T14:00:32.049Z,1001.67
2018-09-01T14:01:42.132Z,1001.72
2018-09-01T14:02:52.247Z,1001.74
2018-09-01T14:04:02.085Z,1001.8
2018-09-01T14:05:12.180Z,1001.78
2018-09-01T14:06:22.278Z,1001.81
2018-09-01T14:07:32.584Z,1001.73
2018-09-01T14:08:42.356Z,1001.71
2018-09-01T14:09:52.456Z,1001.72
2018-09-01T14:11:02.558Z,1001.75
2018-09-01T14:12:12.695Z,1001.76
2018-09-01T14:13:23.012Z,1001.76
2018-09-01T14:14:33.192Z,1001.77
2018-09-01T14:15:44.592Z,1001.76
2018-09-01T14:16:54.674Z,1001.78
2018-09-01T14:18:04.524Z,1001.82
2018-09-01T14:19:14.602Z,1001.83
2018-09-01T14:20:24.503Z,1001.82
2018-09-01T14:21:34.878Z,1001.84
2018-09-01T14:22:44.969Z,1001.78
2018-09-01T14:23:55.068Z,1001.77
2018-09-01T14:25:05.612Z,1001.73
2018-09-01T14:26:15.809Z,1001.69
2018-09-01T14:27:25.634Z,1001.67
2018-09-01T14:28:35.719Z,1001.64
2018-09-01T14:29:45.816Z,1001.63
2018-09-01T14:30:55.913Z,1001.62
2018-09-01T14:32:07.314Z,1001.69
2018-09-01T14:33:17.435Z,1001.69
2018-09-01T14:34:27.535Z,1001.74
2018-09-01T14:35:37.675Z,1001.78
2018-09-01T14:36:47.801Z,1001.79
2018-09-01T14:37:57.930Z,1001.82
2018-09-01T14:39:08.562Z,1001.84
2018-09-01T14:40:18.402Z,1001.85
2018-09-01T14:41:28.511Z,1001.83
2018-09-01T14:42:38.384Z,1001.75
2018-09-01T14:43:48.528Z,1001.77
2018-09-01T14:44:58.377Z,1001.72
2018-09-01T14:46:08.488Z,1001.74
2018-09-01T14:47:18.625Z,1001.71